createdAt,value
2018-10-02T18:23:31.867Z,1.30
2018-10-02T18:25:59.426Z,1.30
2018-10-02T18:28:26.850Z,1.50
2018-10-02T18:30:54.262Z,1.30
2018-10-02T18:33:21.688Z,1.92
2018-10-02T18:35:49.103Z,1.20
2018-10-02T18:38:16.520Z,1.45
2018-10-02T18:40:43.941Z,1.57
2018-10-02T18:43:11.479Z,1.30
2018-10-02T18:45:38.807Z,1.30
2018-10-02T18:48:06.220Z,1.40
2018-10-02T18:50:33.680Z,1.53
2018-10-02T18:53:01.178Z,1.47
2018-10-02T18:55:28.596Z,1.25
2018-10-02T18:57:56.068Z,1.00
2018-10-02T19:00:23.491Z,1.30
2018-10-02T19:02:50.907Z,1.17
2018-10-02T19:05:18.336Z,1.50
2018-10-02T19:07:45.749Z,1.20
2018-10-02T19:10:13.293Z,0.90
2018-10-02T19:12:40.647Z,1.03
2018-10-02T19:15:08.064Z,1.10
2018-10-02T19:17:35.471Z,1.40
2018-10-02T19:20:08.412Z,0.80
2018-10-02T19:22:35.789Z,1.30
2018-10-02T19:25:08.603Z,1.02
2018-10-02T19:27:36.027Z,1.30
2018-10-02T19:30:08.787Z,1.10
2018-10-02T19:32:36.199Z,1.10
2018-10-02T19:35:03.611Z,1.60
2018-10-02T19:37:36.415Z,1.30
2018-10-02T19:40:03.817Z,1.40
2018-10-02T19:42:31.236Z,1.65
2018-10-02T19:45:02.856Z,1.43
2018-10-02T19:47:30.337Z,1.50
2018-10-02T19:49:57.679Z,1.60
2018-10-02T19:52:25.090Z,1.30
2018-10-02T19:54:52.507Z,1.50
2018-10-02T19:57:19.926Z,1.77
2018-10-02T19:59:47.391Z,1.70
2018-10-02T20:02:14.848Z,1.30
2018-10-02T20:04:42.292Z,1.98
2018-10-02T20:07:09.765Z,1.30
2018-10-02T20:09:37.123Z,1.37
2018-10-02T20:12:04.548Z,1.50
2018-10-02T20:14:32.004Z,1.70
2018-10-02T20:16:59.419Z,1.60
2018-10-02T20:19:26.823Z,1.40
2018-10-02T20:21:54.243Z,1.87
2018-10-02T20:24:21.662Z,1.50
2018-10-02T20:26:49.091Z,1.67
2018-10-02T20:29:16.502Z,1.90
2018-10-02T20:31:45.644Z,1.95
2018-10-02T20:34:13.186Z,1.70
2018-10-02T20:36:40.664Z,2.12
2018-10-02T20:39:08.015Z,1.70
2018-10-02T20:41:35.440Z,2.10
2018-10-02T20:44:02.843Z,2.03
2018-10-02T20:46:30.252Z,1.80
2018-10-02T20:48:57.666Z,1.90
2018-10-02T20:51:25.083Z,1.97
2018-10-02T20:53:52.486Z,1.92
2018-10-02T20:56:19.907Z,2.00
2018-10-02T20:58:47.464Z,2.52
2018-10-02T21:01:14.899Z,2.00
2018-10-02T21:03:42.302Z,2.40
2018-10-02T21:06:09.759Z,2.37
2018-10-02T21:08:37.174Z,2.37
2018-10-02T21:11:04.574Z,2.50
2018-10-02T21:13:31.982Z,2.83
2018-10-02T21:15:59.397Z,2.72
2018-10-02T21:18:27.224Z,2.40
2018-10-02T21:20:54.899Z,2.73
2018-10-02T21:23:22.316Z,2.80
2018-10-02T21:25:49.748Z,2.95
2018-10-02T21:28:17.222Z,2.63
2018-10-02T21:30:44.659Z,2.70
2018-10-02T21:33:12.072Z,2.80
2018-10-02T21:35:39.487Z,3.10
2018-10-02T21:38:06.939Z,3.13
2018-10-02T21:40:34.351Z,3.43
2018-10-02T21:43:01.849Z,2.77
2018-10-02T21:45:29.264Z,3.13
2018-10-02T21:47:56.707Z,3.08
2018-10-02T21:50:24.117Z,3.03
2018-10-02T21:52:51.530Z,2.92
2018-10-02T21:55:19.032Z,2.97
2018-10-02T21:57:46.471Z,2.93
2018-10-02T22:00:13.883Z,3.10
2018-10-02T22:02:41.307Z,3.40
2018-10-02T22:05:08.755Z,3.27
2018-10-02T22:07:36.172Z,3.70
2018-10-02T22:10:03.583Z,3.72
2018-10-02T22:12:31.010Z,3.53
2018-10-02T22:14:58.587Z,3.80
2018-10-02T22:17:26.253Z,4.22
2018-10-02T22:19:53.619Z,3.67
2018-10-02T22:22:21.066Z,3.45
2018-10-02T22:24:48.524Z,4.00
2018-10-02T22:27:15.926Z,3.95
2018-10-02T22:29:43.343Z,4.20
2018-10-02T22:32:11.067Z,4.20
2018-10-02T22:34:38.498Z,3.75
2018-10-02T22:37:05.915Z,4.03
2018-10-02T22:39:33.331Z,3.98
2018-10-02T22:42:00.758Z,3.90
2018-10-02T22:44:28.185Z,4.25
2018-10-02T22:46:55.596Z,4.40
2018-10-02T22:49:23.024Z,4.42
2018-10-02T22:51:50.430Z,4.87
2018-10-02T22:54:17.910Z,3.65
2018-10-02T22:56:45.368Z,4.07
2018-10-02T22:59:12.784Z,4.40
2018-10-02T23:01:40.187Z,4.80
2018-10-02T23:04:07.648Z,4.53
2018-10-02T23:06:35.063Z,4.73
2018-10-02T23:09:02.503Z,4.43
2018-10-02T23:11:29.890Z,4.58
2018-10-02T23:13:57.325Z,4.90
2018-10-02T23:16:24.743Z,4.25
2018-10-02T23:18:52.161Z,4.83
2018-10-02T23:21:19.702Z,5.20
2018-10-02T23:23:47.118Z,5.27
2018-10-02T23:26:14.527Z,5.40
2018-10-02T23:28:41.938Z,5.10
2018-10-02T23:31:09.346Z,5.33
2018-10-02T23:33:36.767Z,4.73
2018-10-02T23:36:04.179Z,5.92
2018-10-02T23:38:31.635Z,5.23
2018-10-02T23:40:59.055Z,5.15
2018-10-02T23:43:26.583Z,4.60
2018-10-02T23:45:53.996Z,5.70
2018-10-02T23:48:21.420Z,5.30
2018-10-02T23:50:48.823Z,5.17
2018-10-02T23:53:16.243Z,4.57
2018-10-02T23:55:43.691Z,5.70
2018-10-02T23:58:11.135Z,5.33
